createdAt,value
2017-08-21T00:01:20.622Z,13.70
2017-08-21T00:03:48.085Z,13.70
2017-08-21T00:06:15.512Z,13.80
2017-08-21T00:08:42.953Z,13.80
2017-08-21T00:11:10.388Z,13.80
2017-08-21T00:13:37.848Z,13.80
2017-08-21T00:16:05.294Z,13.80
2017-08-21T00:18:32.731Z,13.90
2017-08-21T00:21:00.182Z,14.00
2017-08-21T00:23:27.600Z,14.00
2017-08-21T00:25:55.048Z,14.00
2017-08-21T00:28:22.524Z,13.90
2017-08-21T00:30:49.993Z,13.80
2017-08-21T00:33:17.440Z,13.70
2017-08-21T00:35:44.890Z,13.70
2017-08-21T00:38:12.331Z,13.70
2017-08-21T00:40:39.967Z,13.70
2017-08-21T00:43:07.682Z,13.70
2017-08-21T00:45:35.118Z,13.80
2017-08-21T00:48:02.548Z,13.70
2017-08-21T00:50:30.015Z,13.70
2017-08-21T00:52:57.476Z,13.60
2017-08-21T00:55:25.316Z,13.60
2017-08-21T00:57:52.760Z,13.50
2017-08-21T01:00:20.177Z,13.50
2017-08-21T01:02:47.636Z,13.60
2017-08-21T01:05:15.966Z,13.50
2017-08-21T01:07:43.423Z,13.50
2017-08-21T01:10:10.863Z,13.50
2017-08-21T01:12:38.288Z,13.50
2017-08-21T01:15:05.740Z,13.50
2017-08-21T01:17:33.212Z,13.40
2017-08-21T01:20:00.680Z,13.30
2017-08-21T01:22:28.193Z,13.30
2017-08-21T01:24:55.656Z,13.30
2017-08-21T01:27:23.106Z,13.40
2017-08-21T01:29:50.525Z,13.40
2017-08-21T01:32:18.065Z,13.40
2017-08-21T01:34:45.498Z,13.40
2017-08-21T01:37:12.933Z,13.40
2017-08-21T01:39:40.396Z,13.40
2017-08-21T01:42:07.830Z,13.40
2017-08-21T01:44:35.352Z,13.20
2017-08-21T01:47:02.854Z,13.10
2017-08-21T01:49:30.284Z,12.90
2017-08-21T01:51:57.892Z,12.70
2017-08-21T01:54:25.329Z,12.50
2017-08-21T01:56:52.777Z,12.40
2017-08-21T01:59:20.257Z,12.30
2017-08-21T02:01:47.685Z,12.30
2017-08-21T02:04:15.127Z,12.30
2017-08-21T02:06:42.841Z,12.20
2017-08-21T02:09:10.309Z,12.20
2017-08-21T02:11:37.747Z,12.20
2017-08-21T02:14:05.213Z,12.20
2017-08-21T02:16:32.662Z,12.40
2017-08-21T02:19:00.108Z,12.50
2017-08-21T02:21:27.551Z,12.50
2017-08-21T02:23:55.011Z,12.60
2017-08-21T02:26:22.464Z,12.60
2017-08-21T02:28:50.272Z,12.60
2017-08-21T02:31:17.724Z,12.60
2017-08-21T02:33:45.420Z,12.50
2017-08-21T02:36:12.882Z,12.50
2017-08-21T02:38:46.240Z,12.40
2017-08-21T02:41:13.673Z,12.40
2017-08-21T02:43:41.172Z,12.40
2017-08-21T02:46:08.640Z,12.30
2017-08-21T02:48:36.069Z,12.40
2017-08-21T02:51:03.515Z,12.50
2017-08-21T02:53:30.969Z,12.50
2017-08-21T02:55:58.386Z,12.50
2017-08-21T02:58:25.847Z,12.50
2017-08-21T03:00:53.295Z,12.50
2017-08-21T03:03:20.820Z,12.50
2017-08-21T03:05:48.581Z,12.50
2017-08-21T03:08:16.294Z,12.40
2017-08-21T03:10:43.744Z,12.30
2017-08-21T03:13:11.204Z,12.30
2017-08-21T03:15:38.650Z,12.20
2017-08-21T03:18:06.082Z,12.10
2017-08-21T03:20:33.536Z,12.00
2017-08-21T03:23:00.996Z,11.80
2017-08-21T03:25:28.471Z,11.80
2017-08-21T03:27:55.897Z,11.70
2017-08-21T03:30:23.406Z,11.60
2017-08-21T03:32:50.867Z,11.60
2017-08-21T03:35:18.286Z,11.60
2017-08-21T03:37:45.737Z,11.60
2017-08-21T03:40:13.174Z,11.70
2017-08-21T03:42:40.620Z,11.90
2017-08-21T03:45:08.061Z,11.90
2017-08-21T03:47:35.527Z,12.00
2017-08-21T03:50:03.148Z,12.00
2017-08-21T03:52:30.586Z,12.10
2017-08-21T03:54:58.037Z,12.20
2017-08-21T03:57:25.473Z,12.30
2017-08-21T03:59:52.932Z,12.40
2017-08-21T04:02:20.412Z,12.50
2017-08-21T04:04:47.844Z,12.40
2017-08-21T04:07:15.304Z,12.40
2017-08-21T04:09:42.743Z,12.40
2017-08-21T04:12:10.180Z,12.40
2017-08-21T04:14:37.704Z,12.40
2017-08-21T04:17:05.136Z,12.40
2017-08-21T04:19:32.589Z,12.40
2017-08-21T04:22:00.101Z,12.30
2017-08-21T04:24:27.730Z,12.20
2017-08-21T04:26:55.155Z,12.10
2017-08-21T04:29:22.695Z,12.00
2017-08-21T04:31:50.244Z,12.00
2017-08-21T04:34:17.890Z,12.00
2017-08-21T04:36:45.338Z,12.00
2017-08-21T04:39:12.765Z,12.00
2017-08-21T04:41:40.222Z,11.90
2017-08-21T04:44:07.673Z,11.90
2017-08-21T04:46:35.187Z,11.90
2017-08-21T04:49:02.644Z,12.00
2017-08-21T04:51:30.091Z,12.10
2017-08-21T04:53:57.549Z,12.30
2017-08-21T04:56:24.985Z,12.50
2017-08-21T04:58:52.421Z,12.60
2017-08-21T05:01:19.946Z,12.60
2017-08-21T05:03:47.372Z,12.70
2017-08-21T05:06:14.834Z,12.70
2017-08-21T05:08:42.280Z,12.70
2017-08-21T05:11:09.916Z,12.70
2017-08-21T05:13:37.420Z,12.70
2017-08-21T05:16:04.874Z,12.70
2017-08-21T05:18:32.357Z,12.80
2017-08-21T05:20:59.802Z,12.90
2017-08-21T05:23:27.254Z,12.90
2017-08-21T05:25:54.710Z,13.00
2017-08-21T05:28:22.144Z,13.10
2017-08-21T05:30:49.625Z,13.10
2017-08-21T05:33:17.188Z,13.00
2017-08-21T05:35:45.073Z,13.00
2017-08-21T05:38:12.512Z,13.00
2017-08-21T05:40:40.173Z,13.00
2017-08-21T05:43:07.688Z,13.10
2017-08-21T05:45:35.202Z,13.10
2017-08-21T05:48:02.639Z,13.10
2017-08-21T05:50:30.098Z,13.00
2017-08-21T05:52:57.565Z,12.90
2017-08-21T05:55:25.030Z,12.90
2017-08-21T05:57:52.816Z,12.80
2017-08-21T06:00:20.257Z,12.80
2017-08-21T06:02:47.718Z,12.70
2017-08-21T06:05:15.176Z,12.70
2017-08-21T06:07:42.636Z,12.80
2017-08-21T06:10:10.114Z,12.90
2017-08-21T06:12:37.574Z,13.00
2017-08-21T06:15:05.022Z,13.20
2017-08-21T06:17:32.480Z,13.50
2017-08-21T06:19:59.928Z,13.60
2017-08-21T06:22:27.455Z,13.70
2017-08-21T06:24:54.868Z,13.80
2017-08-21T06:27:22.342Z,13.80
2017-08-21T06:29:49.782Z,13.90
2017-08-21T06:32:17.239Z,14.10
2017-08-21T06:34:44.689Z,14.40
2017-08-21T06:37:12.149Z,14.90
2017-08-21T06:39:39.612Z,15.10
2017-08-21T06:42:07.040Z,15.20
2017-08-21T06:44:34.509Z,15.10
2017-08-21T06:47:01.968Z,14.90
2017-08-21T06:49:29.395Z,14.50
2017-08-21T06:51:56.869Z,14.40
2017-08-21T06:54:24.290Z,14.70
2017-08-21T06:56:51.752Z,15.10
2017-08-21T06:59:19.184Z,15.40
2017-08-21T07:01:46.621Z,15.60
2017-08-21T07:04:14.072Z,15.90
2017-08-21T07:06:41.552Z,15.90
2017-08-21T07:09:09.091Z,15.80
2017-08-21T07:11:36.504Z,15.70
2017-08-21T07:14:03.985Z,15.80
2017-08-21T07:16:31.441Z,15.90
2017-08-21T07:18:58.905Z,15.90
2017-08-21T07:21:26.377Z,15.90
2017-08-21T07:23:53.811Z,16.00
2017-08-21T07:26:21.306Z,16.10
2017-08-21T07:28:48.741Z,16.10
2017-08-21T07:31:16.169Z,16.00
2017-08-21T07:33:43.639Z,15.90
2017-08-21T07:36:11.137Z,15.70
2017-08-21T07:38:38.560Z,15.50
2017-08-21T07:41:06.045Z,15.40
2017-08-21T07:43:33.501Z,15.40
2017-08-21T07:46:00.970Z,15.40
2017-08-21T07:48:28.436Z,15.40
2017-08-21T07:50:55.870Z,15.40
2017-08-21T07:53:23.347Z,15.60
2017-08-21T07:55:50.785Z,15.80
2017-08-21T07:58:18.196Z,16.00
2017-08-21T08:00:45.658Z,16.30
2017-08-21T08:03:13.088Z,16.70
2017-08-21T08:05:40.552Z,17.10
2017-08-21T08:08:08.000Z,17.20
2017-08-21T08:10:35.441Z,17.10
2017-08-21T08:13:02.945Z,16.90
2017-08-21T08:15:30.380Z,16.80
2017-08-21T08:17:57.852Z,16.60
2017-08-21T08:20:25.277Z,16.60
2017-08-21T08:22:52.711Z,16.60
2017-08-21T08:25:20.161Z,16.50
2017-08-21T08:27:47.597Z,16.40
2017-08-21T08:30:15.071Z,16.40
2017-08-21T08:32:42.540Z,16.40
2017-08-21T08:35:10.001Z,16.40
2017-08-21T08:37:37.440Z,16.50
2017-08-21T08:40:04.897Z,16.60
2017-08-21T08:42:32.337Z,16.70
2017-08-21T08:44:59.780Z,16.70
2017-08-21T08:47:27.259Z,16.80
2017-08-21T08:49:54.685Z,16.80
2017-08-21T08:52:22.148Z,16.70
2017-08-21T08:54:49.588Z,16.80
2017-08-21T08:57:17.014Z,16.90
2017-08-21T08:59:44.641Z,17.00
2017-08-21T09:02:12.388Z,17.10
2017-08-21T09:04:39.844Z,17.10
2017-08-21T09:07:07.557Z,17.20
2017-08-21T09:09:35.001Z,17.30
2017-08-21T09:12:02.444Z,17.40
2017-08-21T09:14:30.033Z,17.40
2017-08-21T09:16:57.497Z,17.50
2017-08-21T09:19:24.940Z,17.60
2017-08-21T09:21:52.400Z,17.70
2017-08-21T09:24:19.842Z,17.70
2017-08-21T09:26:47.300Z,17.80
2017-08-21T09:29:14.777Z,17.90
2017-08-21T09:31:42.282Z,18.00
2017-08-21T09:34:09.704Z,18.00
2017-08-21T09:36:37.173Z,18.10
2017-08-21T09:39:04.934Z,18.20
2017-08-21T09:41:32.645Z,18.30
2017-08-21T09:44:00.101Z,18.50
2017-08-21T09:46:27.558Z,18.80
2017-08-21T09:48:55.053Z,19.30
2017-08-21T09:51:22.488Z,20.00
2017-08-21T09:53:50.174Z,20.70
2017-08-21T09:56:17.621Z,20.80
2017-08-21T09:58:45.082Z,20.90
2017-08-21T10:01:12.542Z,21.10
2017-08-21T10:03:39.990Z,21.30
2017-08-21T10:06:07.453Z,21.50
2017-08-21T10:08:34.919Z,21.60
2017-08-21T10:11:02.357Z,21.40
2017-08-21T10:13:29.784Z,20.90
2017-08-21T10:15:57.237Z,20.50
2017-08-21T10:18:24.688Z,20.20
2017-08-21T10:20:52.138Z,20.00
2017-08-21T10:23:19.596Z,20.00
2017-08-21T10:25:47.061Z,20.10
2017-08-21T10:28:14.489Z,20.00
2017-08-21T10:30:41.926Z,19.90
2017-08-21T10:33:09.376Z,19.90
2017-08-21T10:35:36.843Z,19.90
2017-08-21T10:38:04.528Z,19.80
2017-08-21T10:40:31.997Z,19.80
2017-08-21T10:42:59.441Z,19.70
2017-08-21T10:45:26.926Z,19.70
2017-08-21T10:47:54.402Z,19.60
2017-08-21T10:50:22.089Z,19.40
2017-08-21T10:52:49.576Z,19.20
2017-08-21T10:55:17.007Z,19.10
2017-08-21T10:57:44.456Z,19.20
2017-08-21T11:00:11.890Z,19.30
2017-08-21T11:02:39.341Z,19.70
2017-08-21T11:05:06.790Z,20.20
2017-08-21T11:07:34.228Z,20.60
2017-08-21T11:10:01.681Z,21.10
2017-08-21T11:12:29.128Z,21.60
2017-08-21T11:14:56.585Z,22.00
2017-08-21T11:17:24.064Z,22.40
2017-08-21T11:19:51.543Z,22.50
2017-08-21T11:22:18.993Z,22.80
2017-08-21T11:24:46.449Z,22.80
2017-08-21T11:27:14.005Z,22.80
2017-08-21T11:29:41.449Z,22.60
2017-08-21T11:32:08.901Z,22.60
2017-08-21T11:34:36.357Z,22.30
2017-08-21T11:37:03.838Z,22.30
2017-08-21T11:39:31.332Z,22.50
2017-08-21T11:41:58.805Z,22.70
2017-08-21T11:44:26.233Z,23.00
2017-08-21T11:46:53.672Z,22.60
2017-08-21T11:49:21.141Z,22.30
2017-08-21T11:51:48.602Z,22.30
2017-08-21T11:54:16.065Z,22.40
2017-08-21T11:56:44.575Z,22.10
2017-08-21T11:59:12.024Z,22.00
2017-08-21T12:01:39.489Z,21.90
2017-08-21T12:04:06.938Z,21.70
2017-08-21T12:06:34.357Z,21.40
2017-08-21T12:09:01.814Z,21.20
2017-08-21T12:11:29.355Z,21.10
2017-08-21T12:13:56.789Z,21.00
2017-08-21T12:16:24.253Z,20.90
2017-08-21T12:18:51.687Z,20.80
2017-08-21T12:21:19.104Z,20.80
2017-08-21T12:23:46.754Z,20.80
2017-08-21T12:26:14.404Z,20.70
2017-08-21T12:28:41.852Z,20.50
2017-08-21T12:31:09.316Z,20.40
2017-08-21T12:33:36.752Z,20.40
2017-08-21T12:36:04.186Z,20.40
2017-08-21T12:38:31.650Z,20.40
2017-08-21T12:40:59.101Z,20.60
2017-08-21T12:43:26.571Z,20.70
2017-08-21T12:45:54.804Z,21.50
2017-08-21T12:48:22.257Z,21.50
2017-08-21T12:50:49.972Z,21.60
2017-08-21T12:53:17.421Z,21.70
2017-08-21T12:55:44.867Z,21.80
2017-08-21T12:58:12.324Z,21.80
2017-08-21T13:00:39.751Z,21.80
2017-08-21T13:03:07.226Z,21.60
2017-08-21T13:05:34.751Z,21.40
2017-08-21T13:08:02.193Z,21.30
2017-08-21T13:10:29.713Z,21.30
2017-08-21T13:12:57.195Z,21.30
2017-08-21T13:15:24.641Z,21.30
2017-08-21T13:17:52.393Z,21.30
2017-08-21T13:20:19.839Z,21.40
2017-08-21T13:22:47.299Z,21.30
2017-08-21T13:25:14.735Z,21.40
2017-08-21T13:27:42.195Z,21.60
2017-08-21T13:30:09.657Z,21.60
2017-08-21T13:32:37.127Z,21.80
2017-08-21T13:35:04.561Z,22.00
2017-08-21T13:37:32.015Z,22.10
2017-08-21T13:39:59.512Z,22.40
2017-08-21T13:42:26.967Z,22.50
2017-08-21T13:44:54.417Z,22.50
2017-08-21T13:47:21.889Z,22.60
2017-08-21T13:49:49.350Z,22.60
2017-08-21T13:52:16.804Z,22.60
2017-08-21T13:54:44.274Z,22.60
2017-08-21T13:57:11.734Z,22.50
2017-08-21T13:59:39.171Z,22.70
2017-08-21T14:02:06.633Z,22.90
2017-08-21T14:04:34.085Z,22.80
2017-08-21T14:07:01.565Z,23.10
2017-08-21T14:09:29.001Z,23.20
2017-08-21T14:11:56.517Z,23.50
2017-08-21T14:14:24.013Z,23.70
2017-08-21T14:16:54.854Z,23.80
2017-08-21T14:19:22.903Z,23.90
2017-08-21T14:21:50.514Z,23.70
2017-08-21T14:24:17.973Z,23.30
2017-08-21T14:26:45.439Z,22.80
2017-08-21T14:29:12.873Z,22.60
2017-08-21T14:31:40.336Z,22.40
2017-08-21T14:34:07.785Z,22.30
2017-08-21T14:36:35.243Z,22.10
2017-08-21T14:39:04.251Z,22.00
2017-08-21T14:41:33.547Z,22.00
2017-08-21T14:44:01.002Z,22.10
2017-08-21T14:46:28.448Z,22.20
2017-08-21T14:48:55.904Z,22.30
2017-08-21T14:51:23.351Z,22.30
2017-08-21T14:53:50.818Z,22.30
2017-08-21T14:56:18.266Z,22.20
2017-08-21T14:58:45.756Z,22.10
2017-08-21T15:01:13.187Z,22.20
2017-08-21T15:03:40.667Z,22.20
2017-08-21T15:06:08.137Z,22.40
2017-08-21T15:08:35.571Z,22.30
2017-08-21T15:11:03.029Z,22.40
2017-08-21T15:13:30.507Z,22.50
2017-08-21T15:15:57.949Z,23.00
2017-08-21T15:18:25.400Z,23.20
2017-08-21T15:20:52.844Z,23.30
2017-08-21T15:23:20.298Z,23.30
2017-08-21T15:25:47.757Z,23.00
2017-08-21T15:28:15.217Z,23.00
2017-08-21T15:30:42.690Z,22.90
2017-08-21T15:33:10.155Z,22.80
2017-08-21T15:35:37.589Z,22.80
2017-08-21T15:38:05.075Z,22.80
2017-08-21T15:40:32.518Z,22.90
2017-08-21T15:42:59.991Z,22.80
2017-08-21T15:45:27.417Z,22.80
2017-08-21T15:47:54.973Z,23.10
2017-08-21T15:50:23.160Z,23.00
2017-08-21T15:52:50.842Z,23.00
2017-08-21T15:55:18.308Z,23.10
2017-08-21T15:57:45.744Z,23.10
2017-08-21T16:00:13.225Z,23.10
2017-08-21T16:02:40.668Z,23.20
2017-08-21T16:05:08.141Z,23.90
2017-08-21T16:07:35.577Z,23.90
2017-08-21T16:10:03.055Z,23.70
2017-08-21T16:12:30.517Z,23.80
2017-08-21T16:14:58.119Z,24.10
2017-08-21T16:17:25.593Z,24.30
2017-08-21T16:19:53.067Z,24.40
2017-08-21T16:22:20.513Z,23.90
2017-08-21T16:24:47.978Z,24.10
2017-08-21T16:27:15.438Z,24.00
2017-08-21T16:29:42.888Z,23.80
2017-08-21T16:32:10.343Z,23.20
2017-08-21T16:34:37.912Z,23.00
2017-08-21T16:37:05.390Z,22.90
2017-08-21T16:39:32.856Z,22.50
2017-08-21T16:42:00.284Z,22.10
2017-08-21T16:44:27.742Z,21.70
2017-08-21T16:46:55.191Z,21.50
2017-08-21T16:49:22.637Z,21.40
2017-08-21T16:51:50.085Z,21.40
2017-08-21T16:54:17.560Z,21.60
2017-08-21T16:56:45.056Z,21.60
2017-08-21T16:59:12.521Z,21.60
2017-08-21T17:01:39.963Z,21.60
2017-08-21T17:04:07.448Z,21.60
2017-08-21T17:06:34.909Z,22.00
2017-08-21T17:09:02.357Z,22.30
2017-08-21T17:11:29.866Z,22.50
2017-08-21T17:13:57.342Z,22.60
2017-08-21T17:16:24.777Z,23.10
2017-08-21T17:18:53.005Z,23.60
2017-08-21T17:21:20.472Z,23.80
2017-08-21T17:23:47.921Z,23.80
2017-08-21T17:26:15.377Z,23.70
2017-08-21T17:28:42.820Z,23.50
2017-08-21T17:31:10.282Z,23.10
2017-08-21T17:33:37.740Z,23.00
2017-08-21T17:36:05.192Z,23.00
2017-08-21T17:38:32.746Z,23.00
2017-08-21T17:41:00.184Z,22.90
2017-08-21T17:43:27.614Z,22.70
2017-08-21T17:45:55.107Z,22.40
2017-08-21T17:48:22.580Z,21.80
2017-08-21T17:50:50.258Z,21.10
2017-08-21T17:53:17.729Z,20.70
2017-08-21T17:55:45.191Z,20.50
2017-08-21T17:58:13.108Z,20.30
2017-08-21T18:00:40.709Z,20.20
2017-08-21T18:03:08.177Z,20.10
2017-08-21T18:05:35.619Z,20.00
2017-08-21T18:08:03.100Z,19.90
2017-08-21T18:10:30.548Z,19.80
2017-08-21T18:12:58.039Z,19.70
2017-08-21T18:15:25.530Z,19.70
2017-08-21T18:17:52.970Z,19.60
2017-08-21T18:20:20.453Z,19.50
2017-08-21T18:22:48.266Z,19.40
2017-08-21T18:25:15.743Z,19.30
2017-08-21T18:27:43.184Z,19.10
2017-08-21T18:30:10.628Z,19.00
2017-08-21T18:32:38.095Z,18.80
2017-08-21T18:35:06.464Z,18.60
2017-08-21T18:37:34.298Z,18.40
2017-08-21T18:40:01.773Z,18.30
2017-08-21T18:42:29.248Z,18.20
2017-08-21T18:44:57.033Z,18.10
2017-08-21T18:50:17.200Z,17.90
2017-08-21T18:52:44.696Z,17.90
2017-08-21T18:55:12.189Z,18.00
2017-08-21T18:57:39.996Z,17.90
2017-08-21T19:00:07.543Z,17.80
2017-08-21T19:02:35.025Z,17.80
2017-08-21T19:05:02.561Z,17.90
2017-08-21T19:07:30.029Z,17.80
2017-08-21T19:09:57.501Z,17.90
2017-08-21T19:12:25.187Z,17.80
2017-08-21T19:14:52.664Z,17.90
2017-08-21T19:17:20.130Z,17.80
2017-08-21T19:19:47.582Z,17.60
2017-08-21T19:22:15.244Z,17.30
2017-08-21T19:24:42.750Z,17.10
2017-08-21T19:27:10.453Z,17.00
2017-08-21T19:29:37.921Z,16.80
2017-08-21T19:32:05.379Z,16.60
2017-08-21T19:34:33.187Z,16.40
2017-08-21T19:37:01.226Z,16.30
2017-08-21T19:39:28.895Z,16.20
2017-08-21T19:41:56.406Z,16.20
2017-08-21T19:44:23.952Z,16.00
2017-08-21T19:46:51.407Z,15.90
2017-08-21T19:49:19.011Z,16.00
2017-08-21T19:51:46.496Z,16.20
2017-08-21T19:54:13.954Z,16.40
2017-08-21T19:56:41.722Z,16.70
2017-08-21T19:59:09.208Z,16.80
2017-08-21T20:01:36.665Z,16.90
2017-08-21T20:04:04.117Z,16.80
2017-08-21T20:06:31.605Z,16.60
2017-08-21T20:08:59.094Z,16.40
2017-08-21T20:11:26.551Z,16.40
2017-08-21T20:13:54.010Z,16.40
2017-08-21T20:16:21.446Z,16.30
2017-08-21T20:18:49.150Z,16.20
2017-08-21T20:21:16.609Z,16.20
2017-08-21T20:23:44.086Z,16.20
2017-08-21T20:26:11.534Z,16.10
2017-08-21T20:28:39.039Z,16.00
2017-08-21T20:31:06.473Z,15.70
2017-08-21T20:33:33.929Z,15.60
2017-08-21T20:36:03.010Z,15.40
2017-08-21T20:38:30.469Z,15.50
2017-08-21T20:40:57.930Z,15.50
2017-08-21T20:43:25.390Z,15.50
2017-08-21T20:45:53.063Z,15.40
2017-08-21T20:48:20.557Z,15.20
2017-08-21T20:50:47.983Z,15.10
2017-08-21T20:53:15.443Z,15.20
2017-08-21T20:55:42.894Z,15.30
2017-08-21T20:58:10.363Z,15.40
2017-08-21T21:00:37.822Z,15.40
2017-08-21T21:03:05.276Z,15.30
2017-08-21T21:05:32.735Z,15.20
2017-08-21T21:08:00.203Z,15.10
2017-08-21T21:10:27.649Z,15.20
2017-08-21T21:12:55.124Z,15.20
2017-08-21T21:15:22.585Z,15.30
2017-08-21T21:17:50.050Z,15.30
2017-08-21T21:20:17.489Z,15.20
2017-08-21T21:22:44.940Z,15.20
2017-08-21T21:25:12.377Z,15.10
2017-08-21T21:28:08.305Z,15.10
2017-08-21T21:30:35.758Z,15.10
2017-08-21T21:33:03.191Z,15.10
2017-08-21T21:35:30.657Z,15.10
2017-08-21T21:37:58.126Z,15.20
2017-08-21T21:40:25.558Z,15.20
2017-08-21T21:42:53.021Z,15.10
2017-08-21T21:45:20.474Z,15.10
2017-08-21T21:47:47.941Z,15.10
2017-08-21T21:50:15.385Z,15.10
2017-08-21T21:52:42.818Z,15.20
2017-08-21T21:55:10.293Z,15.30
2017-08-21T21:57:37.728Z,15.30
2017-08-21T22:00:05.953Z,15.40
2017-08-21T22:02:33.431Z,15.40
2017-08-21T22:05:00.895Z,15.40
2017-08-21T22:07:29.110Z,15.20
2017-08-21T22:09:56.548Z,15.20
2017-08-21T22:12:24.005Z,15.20
2017-08-21T22:14:52.264Z,14.90
2017-08-21T22:17:19.704Z,14.90
2017-08-21T22:19:47.257Z,14.90
2017-08-21T22:22:14.721Z,14.80
2017-08-21T22:24:42.313Z,14.90
2017-08-21T22:27:09.837Z,14.90
2017-08-21T22:29:37.595Z,14.80
2017-08-21T22:32:05.041Z,14.80
2017-08-21T22:34:32.496Z,14.70
2017-08-21T22:36:59.972Z,14.60
2017-08-21T22:39:27.416Z,14.50
2017-08-21T22:41:54.872Z,14.50
2017-08-21T22:44:22.310Z,14.40
2017-08-21T22:46:49.819Z,14.50
2017-08-21T22:49:17.256Z,14.50
2017-08-21T22:51:44.717Z,14.60
2017-08-21T22:54:12.169Z,14.60
2017-08-21T22:56:39.600Z,14.60
2017-08-21T22:59:07.076Z,14.60
2017-08-21T23:01:34.536Z,14.60
2017-08-21T23:04:02.010Z,14.70
2017-08-21T23:06:29.453Z,14.80
2017-08-21T23:08:56.914Z,14.90
2017-08-21T23:11:24.391Z,14.90
2017-08-21T23:13:51.818Z,14.80
2017-08-21T23:16:20.226Z,14.50
2017-08-21T23:18:47.665Z,14.50
2017-08-21T23:21:15.105Z,14.40
2017-08-21T23:23:42.554Z,14.40
2017-08-21T23:26:10.021Z,14.40
2017-08-21T23:28:37.476Z,14.30
2017-08-21T23:31:04.924Z,14.10
2017-08-21T23:33:32.372Z,14.00
2017-08-21T23:35:59.841Z,14.10
2017-08-21T23:38:27.293Z,14.10
2017-08-21T23:40:54.762Z,14.00
2017-08-21T23:43:22.257Z,14.10
2017-08-21T23:45:50.019Z,14.30
2017-08-21T23:48:17.449Z,14.50
2017-08-21T23:50:44.896Z,14.70
2017-08-21T23:53:12.639Z,14.90
2017-08-21T23:55:40.073Z,15.00
2017-08-21T23:58:07.532Z,15.10
